Time;durP1;ratioP1;P1;durP2;ratioP2;P2;SDS_P1;SDS_P2;PMS_P1;PMS_P2;Temp;Humidity;BMP_temperature;BMP_pressure;BME280_temperature;BME280_humidity;BME280_pressure;Samples;Min_cycle;Max_cycle;Signal;HPM_P1;HPM_P2
2022/06/30 00:01:22;;;;;;;8.75;3.40;;;20.30;1.00;;;;;;4976378;28;20054;-79
2022/06/30 00:03:47;;;;;;;3.80;3.40;;;20.40;1.00;;;;;;4975171;28;20396;-79
2022/06/30 00:06:13;;;;;;;4.65;3.10;;;20.30;1.00;;;;;;4975118;28;20051;-79
2022/06/30 00:08:38;;;;;;;6.88;3.50;;;20.30;1.00;;;;;;4974998;28;20031;-80
2022/06/30 00:11:07;;;;;;;5.82;3.80;;;20.30;1.00;;;;;;4974950;28;20043;-79
2022/06/30 00:13:34;;;;;;;5.38;3.25;;;20.20;1.00;;;;;;4971871;28;20027;-80
2022/06/30 00:16:00;;;;;;;6.53;3.58;;;20.20;1.00;;;;;;4975061;28;20038;-79
2022/06/30 00:18:26;;;;;;;5.32;4.72;;;20.10;1.00;;;;;;4975359;28;20403;-80
2022/06/30 00:20:52;;;;;;;6.38;3.70;;;20.00;1.00;;;;;;4974793;28;20507;-79
2022/06/30 00:23:17;;;;;;;4.00;3.58;;;20.10;1.00;;;;;;4956075;28;20054;-79
2022/06/30 00:25:43;;;;;;;4.22;3.53;;;19.90;1.00;;;;;;4975243;28;20399;-80
2022/06/30 00:28:09;;;;;;;7.28;3.35;;;19.80;1.00;;;;;;4952860;28;20042;-79
2022/06/30 00:30:34;;;;;;;8.52;3.55;;;19.70;1.00;;;;;;4974498;28;20065;-79
2022/06/30 00:33:00;;;;;;;5.80;3.30;;;19.70;1.00;;;;;;4975052;28;20089;-79
2022/06/30 00:35:25;;;;;;;6.57;3.90;;;19.80;1.00;;;;;;4974778;28;20027;-79
2022/06/30 00:37:51;;;;;;;3.80;3.38;;;19.70;1.00;;;;;;4974587;28;20034;-79
2022/06/30 00:40:16;;;;;;;8.43;3.65;;;19.70;1.00;;;;;;4972796;28;20066;-79
2022/06/30 00:42:42;;;;;;;6.05;3.13;;;19.60;1.00;;;;;;4974780;28;20038;-78
2022/06/30 00:45:08;;;;;;;3.70;3.40;;;19.60;1.00;;;;;;4974533;28;20038;-80
2022/06/30 00:47:34;;;;;;;5.22;3.40;;;19.70;1.00;;;;;;4974584;28;20037;-79
2022/06/30 00:50:01;;;;;;;4.72;3.22;;;19.60;1.00;;;;;;4974279;28;20035;-79
2022/06/30 00:52:29;;;;;;;4.00;3.70;;;19.50;1.00;;;;;;4974775;28;20034;-79
2022/06/30 00:54:57;;;;;;;4.03;3.55;;;19.40;1.00;;;;;;4974199;28;20023;-79
2022/06/30 00:57:23;;;;;;;7.00;3.50;;;19.40;1.00;;;;;;4974328;28;20070;-79
2022/06/30 00:59:54;;;;;;;6.30;3.40;;;19.40;1.00;;;;;;4973927;28;20031;-79
2022/06/30 01:02:20;;;;;;;4.93;3.67;;;19.40;1.00;;;;;;4974354;28;20101;-80
2022/06/30 01:04:49;;;;;;;6.22;3.58;;;19.30;1.00;;;;;;4957149;28;20023;-79
2022/06/30 01:07:16;;;;;;;4.70;3.55;;;19.40;1.00;;;;;;4974404;28;20019;-79
2022/06/30 01:12:44;;;;;;;7.20;3.60;;;19.30;1.00;;;;;;4974411;28;20602;-79
2022/06/30 01:15:12;;;;;;;6.57;3.92;;;19.30;1.00;;;;;;4973955;28;20031;-79
2022/06/30 01:17:38;;;;;;;7.55;3.80;;;19.10;1.00;;;;;;4973996;28;20490;-79
2022/06/30 01:20:04;;;;;;;8.25;3.75;;;19.10;1.00;;;;;;4956728;28;20026;-79
2022/06/30 01:22:30;;;;;;;5.63;3.67;;;19.20;1.00;;;;;;4974162;28;20042;-79
2022/06/30 01:24:56;;;;;;;4.03;3.67;;;19.10;1.00;;;;;;4973660;28;20030;-79
2022/06/30 01:27:21;;;;;;;6.55;3.92;;;19.00;1.00;;;;;;4973928;28;20035;-80
2022/06/30 01:29:48;;;;;;;7.28;4.07;;;19.00;1.00;;;;;;4973690;28;20122;-80
2022/06/30 01:32:14;;;;;;;6.25;3.85;;;18.90;1.00;;;;;;4973895;28;20038;-79
2022/06/30 01:34:40;;;;;;;5.97;3.90;;;18.80;1.00;;;;;;4956675;28;20396;-79
2022/06/30 01:37:05;;;;;;;5.28;3.92;;;18.80;1.00;;;;;;4973539;28;20041;-79
2022/06/30 01:39:31;;;;;;;7.35;3.55;;;18.70;1.00;;;;;;4953133;28;20126;-79
2022/06/30 01:41:57;;;;;;;5.97;3.60;;;18.70;1.00;;;;;;4954197;28;20092;-79
2022/06/30 01:44:22;;;;;;;4.13;3.72;;;18.80;1.00;;;;;;4954372;29;20023;-79
2022/06/30 01:46:49;;;;;;;5.28;3.60;;;18.90;1.00;;;;;;4954177;29;20039;-79
2022/06/30 01:49:15;;;;;;;5.78;3.78;;;18.90;1.00;;;;;;4954964;28;20112;-79
2022/06/30 01:51:42;;;;;;;4.45;3.67;;;18.80;1.00;;;;;;4952272;29;20457;-79
2022/06/30 01:54:08;;;;;;;5.40;3.78;;;18.80;1.00;;;;;;4952542;29;20407;-79
2022/06/30 01:56:38;;;;;;;4.40;3.45;;;18.80;1.00;;;;;;4953923;29;20023;-79
2022/06/30 01:59:04;;;;;;;7.35;4.00;;;18.80;1.00;;;;;;4954150;28;20035;-79
2022/06/30 02:01:30;;;;;;;4.68;4.05;;;18.70;1.00;;;;;;4954586;28;20061;-79
2022/06/30 02:03:56;;;;;;;7.40;3.50;;;18.60;1.00;;;;;;4953757;28;20039;-79
2022/06/30 02:06:21;;;;;;;4.70;3.75;;;18.80;1.00;;;;;;4953424;28;20522;-79
2022/06/30 02:08:47;;;;;;;8.27;4.05;;;18.90;1.00;;;;;;4953699;29;20555;-79
2022/06/30 02:11:12;;;;;;;5.13;3.70;;;18.80;1.00;;;;;;4953324;28;20126;-79
2022/06/30 02:13:38;;;;;;;4.45;4.03;;;18.70;1.00;;;;;;4953859;29;20034;-79
2022/06/30 02:16:04;;;;;;;6.97;3.75;;;18.70;1.00;;;;;;4953582;29;20496;-79
2022/06/30 02:18:30;;;;;;;5.18;4.13;;;18.80;1.00;;;;;;4953982;29;20377;-79
2022/06/30 02:20:57;;;;;;;5.40;4.07;;;18.80;1.00;;;;;;4953073;29;20102;-79
2022/06/30 02:23:23;;;;;;;7.65;3.90;;;18.90;1.00;;;;;;4953581;28;20027;-79
2022/06/30 02:25:49;;;;;;;4.53;4.03;;;18.70;1.00;;;;;;4954032;28;20502;-79
2022/06/30 02:28:14;;;;;;;8.00;4.30;;;18.80;1.00;;;;;;4954087;29;20419;-79
2022/06/30 02:30:40;;;;;;;5.05;4.00;;;18.80;1.00;;;;;;4953204;29;20046;-79
2022/06/30 02:33:05;;;;;;;5.35;4.18;;;18.80;1.00;;;;;;4953164;29;20381;-79
2022/06/30 02:35:31;;;;;;;5.30;4.40;;;18.80;1.00;;;;;;4953061;29;20066;-79
2022/06/30 02:37:57;;;;;;;4.90;4.18;;;18.70;1.00;;;;;;4953499;29;20044;-79
2022/06/30 02:40:23;;;;;;;5.10;4.00;;;18.60;1.00;;;;;;4965045;28;20043;-79
2022/06/30 02:42:49;;;;;;;6.00;4.20;;;18.60;1.00;;;;;;4972806;28;20484;-79
2022/06/30 02:45:15;;;;;;;7.15;4.05;;;18.60;1.00;;;;;;4972573;28;20113;-79
2022/06/30 02:47:43;;;;;;;5.35;3.97;;;18.70;1.00;;;;;;4972668;28;20031;-79
2022/06/30 02:50:11;;;;;;;7.53;4.57;;;18.60;1.00;;;;;;4971992;28;20027;-80
2022/06/30 02:52:37;;;;;;;5.28;4.32;;;18.50;1.00;;;;;;4972829;28;20031;-79
2022/06/30 02:55:04;;;;;;;4.30;3.90;;;18.40;1.00;;;;;;4972627;28;20576;-79
2022/06/30 02:57:30;;;;;;;4.95;4.00;;;18.40;1.00;;;;;;4972733;28;20093;-79
2022/06/30 02:59:56;;;;;;;6.80;3.92;;;18.50;1.00;;;;;;4972239;28;20101;-79
2022/06/30 03:02:22;;;;;;;5.05;3.60;;;18.60;1.00;;;;;;4972218;28;20042;-79
2022/06/30 03:04:48;;;;;;;6.65;4.32;;;18.50;1.00;;;;;;4972356;28;20027;-79
2022/06/30 03:07:14;;;;;;;4.22;3.67;;;18.50;1.00;;;;;;4972983;28;20055;-79
2022/06/30 03:09:40;;;;;;;6.35;4.07;;;18.50;1.00;;;;;;4972377;28;20051;-78
2022/06/30 03:12:06;;;;;;;6.85;4.20;;;18.40;1.00;;;;;;4972544;28;20042;-79
2022/06/30 03:14:31;;;;;;;5.38;3.83;;;18.40;1.00;;;;;;4972334;28;20031;-79
2022/06/30 03:16:57;;;;;;;5.60;4.15;;;18.30;1.00;;;;;;4971824;28;20042;-79
2022/06/30 03:19:23;;;;;;;10.48;4.30;;;18.30;1.00;;;;;;4955428;28;20030;-79
2022/06/30 03:21:49;;;;;;;5.80;3.85;;;18.50;1.00;;;;;;4972042;28;20085;-79
2022/06/30 03:24:14;;;;;;;6.68;4.00;;;18.50;1.00;;;;;;4974941;28;20035;-79
2022/06/30 03:26:40;;;;;;;6.25;3.83;;;18.60;1.00;;;;;;4975914;28;20036;-79
2022/06/30 03:29:06;;;;;;;8.00;3.67;;;18.60;1.00;;;;;;4975981;28;20030;-79
2022/06/30 03:31:32;;;;;;;5.93;3.80;;;18.60;1.00;;;;;;4976322;28;20038;-79
2022/06/30 03:33:59;;;;;;;7.38;3.75;;;18.60;1.00;;;;;;4975844;28;20023;-79
2022/06/30 03:36:25;;;;;;;5.57;3.70;;;18.60;1.00;;;;;;4975785;28;20038;-79
2022/06/30 03:38:50;;;;;;;6.00;3.80;;;18.70;1.00;;;;;;4975888;28;20384;-79
2022/06/30 03:41:16;;;;;;;6.18;3.67;;;18.70;1.00;;;;;;4975972;28;20097;-79
2022/06/30 03:43:42;;;;;;;5.25;4.00;;;18.70;1.00;;;;;;4975994;28;20404;-79
2022/06/30 03:46:08;;;;;;;7.85;3.90;;;18.70;1.00;;;;;;4974724;28;20113;-79
2022/06/30 03:48:35;;;;;;;4.18;3.72;;;18.70;1.00;;;;;;4975564;28;20059;-79
2022/06/30 03:51:04;;;;;;;9.15;3.85;;;18.60;1.00;;;;;;4975351;28;20045;-78
2022/06/30 03:53:30;;;;;;;6.82;3.80;;;18.70;1.00;;;;;;4975667;28;20384;-79
2022/06/30 03:55:56;;;;;;;4.57;3.95;;;18.70;1.00;;;;;;4975653;28;20054;-79
2022/06/30 03:58:22;;;;;;;3.72;3.15;;;18.80;1.00;;;;;;4976147;28;20023;-79
2022/06/30 04:00:48;;;;;;;3.90;3.60;;;18.80;1.00;;;;;;4974825;28;20049;-79
2022/06/30 04:03:13;;;;;;;4.72;3.60;;;18.70;1.00;;;;;;4975145;28;20029;-79
2022/06/30 04:05:40;;;;;;;8.02;3.83;;;18.70;1.00;;;;;;4975254;28;20535;-79
2022/06/30 04:08:07;;;;;;;7.40;3.65;;;18.70;1.00;;;;;;4975390;28;20023;-79
2022/06/30 04:10:32;;;;;;;3.90;3.60;;;18.70;1.00;;;;;;4972007;28;20046;-79
2022/06/30 04:12:58;;;;;;;6.70;3.47;;;18.60;1.00;;;;;;4974966;28;20511;-79
2022/06/30 04:15:24;;;;;;;6.50;4.05;;;18.60;1.00;;;;;;4974961;28;20051;-79
2022/06/30 04:17:49;;;;;;;5.80;3.70;;;18.60;1.00;;;;;;4974942;28;20073;-79
2022/06/30 04:20:18;;;;;;;5.53;3.70;;;18.60;1.00;;;;;;4975194;28;20038;-79
2022/06/30 04:22:48;;;;;;;8.20;4.00;;;18.70;1.00;;;;;;4974962;28;20031;-79
2022/06/30 04:25:14;;;;;;;5.75;3.53;;;18.60;1.00;;;;;;4975530;28;20019;-79
2022/06/30 04:27:45;;;;;;;4.63;3.92;;;18.60;1.00;;;;;;4957782;28;20122;-79
2022/06/30 04:30:11;;;;;;;7.63;3.72;;;18.70;1.00;;;;;;4974341;28;20086;-79
2022/06/30 04:32:37;;;;;;;5.07;3.80;;;18.70;1.00;;;;;;4974607;28;20034;-79
2022/06/30 04:35:07;;;;;;;4.72;3.80;;;18.80;1.00;;;;;;4973704;28;20038;-79
2022/06/30 04:37:33;;;;;;;10.55;3.90;;;18.90;1.00;;;;;;4971654;28;20122;-79
2022/06/30 04:42:43;;;;;;;9.13;4.05;;;18.90;1.00;;;;;;4974864;28;20046;-79
2022/06/30 04:45:09;;;;;;;8.27;4.20;;;18.90;1.00;;;;;;4974275;28;20027;-79
2022/06/30 04:47:36;;;;;;;6.68;3.90;;;18.90;1.00;;;;;;4974315;28;20034;-79
2022/06/30 04:50:04;;;;;;;5.47;4.07;;;18.80;1.00;;;;;;4974384;28;20039;-79
2022/06/30 04:52:29;;;;;;;6.28;4.10;;;18.80;1.00;;;;;;4975089;28;20041;-79
2022/06/30 04:54:55;;;;;;;6.25;4.30;;;19.00;1.00;;;;;;4974605;28;20031;-78
2022/06/30 04:57:21;;;;;;;5.68;3.97;;;19.10;1.00;;;;;;4974293;28;20081;-79
2022/06/30 04:59:46;;;;;;;4.80;4.03;;;19.20;1.00;;;;;;4956671;28;20042;-79
2022/06/30 05:02:12;;;;;;;5.55;4.07;;;19.20;1.00;;;;;;4974624;28;20022;-79
2022/06/30 05:04:38;;;;;;;8.52;4.13;;;19.30;1.00;;;;;;4974487;28;20027;-79
2022/06/30 05:07:04;;;;;;;6.57;3.88;;;19.50;1.00;;;;;;4974494;28;20532;-79
2022/06/30 05:09:29;;;;;;;5.75;3.70;;;19.50;1.00;;;;;;4973887;28;20097;-79
2022/06/30 05:11:56;;;;;;;5.07;3.80;;;19.60;1.00;;;;;;4974004;28;20030;-79
2022/06/30 05:14:21;;;;;;;9.73;3.92;;;19.80;1.00;;;;;;4973828;28;20027;-79
2022/06/30 05:16:47;;;;;;;6.15;4.07;;;19.90;1.00;;;;;;4974465;28;20022;-79
2022/06/30 05:19:13;;;;;;;7.15;4.22;;;19.80;1.00;;;;;;4974488;28;20030;-79
2022/06/30 05:21:38;;;;;;;4.93;4.43;;;19.80;1.00;;;;;;4973790;28;20027;-79
2022/06/30 05:26:49;;;;;;;5.38;4.75;;;20.00;1.00;;;;;;4974290;28;20166;-79
2022/06/30 05:29:14;;;;;;;6.78;4.15;;;20.30;1.00;;;;;;4973496;28;20110;-79
2022/06/30 05:31:40;;;;;;;11.80;4.70;;;20.40;1.00;;;;;;4973681;28;20045;-79
2022/06/30 05:34:06;;;;;;;6.13;4.13;;;20.50;1.00;;;;;;4974090;28;20019;-79
2022/06/30 05:36:32;;;;;;;5.90;3.92;;;20.50;1.00;;;;;;4973781;28;20038;-79
2022/06/30 05:38:57;;;;;;;6.15;4.32;;;20.60;1.00;;;;;;4973554;28;20455;-79
2022/06/30 05:41:23;;;;;;;7.57;4.50;;;20.80;1.00;;;;;;4973420;28;20051;-79
2022/06/30 05:43:51;;;;;;;7.35;4.78;;;20.70;1.00;;;;;;4973318;28;20035;-79
2022/06/30 05:46:16;;;;;;;8.68;5.10;;;20.80;1.00;;;;;;4971615;28;20473;-79
2022/06/30 05:48:42;;;;;;;5.20;4.60;;;20.80;1.00;;;;;;4973186;28;20034;-79
2022/06/30 05:51:08;;;;;;;8.07;4.45;;;20.70;1.00;;;;;;4973217;28;20109;-80
2022/06/30 05:53:34;;;;;;;8.10;5.32;;;20.80;1.00;;;;;;4973418;28;20034;-79
2022/06/30 05:55:59;;;;;;;7.22;5.22;;;20.80;1.00;;;;;;4973695;28;20093;-79
2022/06/30 05:58:25;;;;;;;6.18;4.60;;;21.00;1.00;;;;;;4973532;28;20365;-79
2022/06/30 06:00:51;;;;;;;9.30;5.05;;;21.20;1.00;;;;;;4955961;28;20388;-79
2022/06/30 06:03:17;;;;;;;7.35;4.78;;;21.40;1.00;;;;;;4972982;28;20074;-79
2022/06/30 06:05:43;;;;;;;9.73;4.88;;;21.60;1.00;;;;;;4973126;28;20526;-79
2022/06/30 06:08:10;;;;;;;10.55;4.70;;;21.70;1.00;;;;;;4973049;28;20035;-79
2022/06/30 06:10:36;;;;;;;8.57;4.72;;;21.90;1.00;;;;;;4973899;28;20042;-79
2022/06/30 06:13:03;;;;;;;7.82;4.20;;;22.00;1.00;;;;;;4972670;28;20027;-79
2022/06/30 06:15:29;;;;;;;5.70;4.68;;;22.10;1.00;;;;;;4972821;28;20030;-80
2022/06/30 06:17:55;;;;;;;7.88;4.30;;;21.90;1.00;;;;;;4972726;28;20523;-80
2022/06/30 06:20:21;;;;;;;14.27;4.50;;;22.10;1.00;;;;;;4972833;28;20659;-80
2022/06/30 06:22:47;;;;;;;6.68;4.25;;;22.10;1.00;;;;;;4973232;28;20018;-80
2022/06/30 06:25:13;;;;;;;5.53;4.07;;;22.00;1.00;;;;;;4973312;28;20039;-80
2022/06/30 06:27:39;;;;;;;8.52;3.90;;;22.20;1.00;;;;;;4972162;28;20143;-80
2022/06/30 06:30:08;;;;;;;5.13;3.60;;;22.50;1.00;;;;;;4954972;28;20159;-80
2022/06/30 06:32:34;;;;;;;5.50;3.75;;;22.80;1.00;;;;;;4972657;28;20023;-80
2022/06/30 06:35:00;;;;;;;6.40;3.63;;;22.90;1.00;;;;;;4972743;28;20038;-79
2022/06/30 06:37:26;;;;;;;6.68;3.42;;;23.00;1.00;;;;;;4955902;28;20038;-80
2022/06/30 06:39:51;;;;;;;4.95;3.47;;;23.00;1.00;;;;;;4971969;28;20055;-79
2022/06/30 06:42:17;;;;;;;5.85;3.65;;;22.90;1.00;;;;;;4972466;28;20031;-79
2022/06/30 06:44:43;;;;;;;7.25;3.72;;;23.00;1.00;;;;;;4972729;28;20035;-80
2022/06/30 06:47:08;;;;;;;4.30;3.40;;;22.90;1.00;;;;;;4972420;28;20046;-80
2022/06/30 06:49:34;;;;;;;5.13;3.92;;;23.00;1.00;;;;;;4973024;28;20034;-80
2022/06/30 06:52:00;;;;;;;7.60;4.05;;;23.10;1.00;;;;;;4972526;28;20055;-80
2022/06/30 06:54:25;;;;;;;7.35;3.75;;;23.20;1.00;;;;;;4972005;28;20031;-79
2022/06/30 06:56:51;;;;;;;8.70;3.92;;;23.20;1.00;;;;;;4972814;28;20053;-80
2022/06/30 06:59:16;;;;;;;6.22;4.05;;;23.10;1.00;;;;;;4960198;28;20082;-80
2022/06/30 07:01:43;;;;;;;8.35;4.20;;;23.00;1.00;;;;;;4979085;28;20066;-80
2022/06/30 07:04:09;;;;;;;5.50;3.97;;;22.90;1.00;;;;;;4978328;28;20023;-80
2022/06/30 07:06:34;;;;;;;8.77;4.55;;;22.40;1.00;;;;;;4978817;28;20392;-80
2022/06/30 07:09:01;;;;;;;7.53;4.20;;;22.60;1.00;;;;;;4978665;28;20101;-80
2022/06/30 07:11:27;;;;;;;5.60;4.13;;;22.60;1.00;;;;;;4978444;28;20118;-79
2022/06/30 07:13:52;;;;;;;7.47;4.07;;;22.80;1.00;;;;;;4978465;28;20535;-80
2022/06/30 07:16:18;;;;;;;6.03;3.88;;;23.00;1.00;;;;;;4979289;28;20089;-80
2022/06/30 07:18:44;;;;;;;5.53;4.03;;;23.00;1.00;;;;;;4978451;28;20348;-80
2022/06/30 07:21:09;;;;;;;7.40;4.00;;;23.00;1.00;;;;;;4978496;28;20114;-80
2022/06/30 07:23:35;;;;;;;10.52;4.13;;;23.10;1.00;;;;;;4978561;28;20035;-80
2022/06/30 07:26:01;;;;;;;5.40;4.15;;;23.20;1.00;;;;;;4978507;28;20518;-80
2022/06/30 07:28:27;;;;;;;7.22;3.97;;;23.20;1.00;;;;;;4979203;28;20102;-80
2022/06/30 07:30:52;;;;;;;5.18;4.00;;;23.30;1.00;;;;;;4978593;28;20057;-80
2022/06/30 07:33:18;;;;;;;5.95;4.07;;;23.40;1.00;;;;;;4978740;28;20230;-80
2022/06/30 07:35:45;;;;;;;6.68;3.90;;;23.40;1.00;;;;;;4978506;28;20035;-80
2022/06/30 07:38:10;;;;;;;6.03;4.10;;;23.40;1.00;;;;;;4978168;28;20026;-80
2022/06/30 07:40:36;;;;;;;7.45;4.00;;;23.50;1.00;;;;;;4979094;28;20053;-80
2022/06/30 07:43:02;;;;;;;10.48;4.22;;;23.40;1.00;;;;;;4978534;28;20089;-80
2022/06/30 07:45:28;;;;;;;6.10;4.18;;;23.50;1.00;;;;;;4978540;28;20491;-80
2022/06/30 07:47:54;;;;;;;6.28;4.10;;;23.60;1.00;;;;;;4978152;28;20026;-80
2022/06/30 07:50:20;;;;;;;6.68;4.00;;;23.60;1.00;;;;;;4978414;28;20106;-80
2022/06/30 07:52:46;;;;;;;7.50;4.18;;;23.70;1.00;;;;;;4978127;28;20076;-80
2022/06/30 07:55:13;;;;;;;5.70;3.88;;;23.70;1.00;;;;;;4978819;28;20027;-80
2022/06/30 07:57:42;;;;;;;9.77;4.10;;;23.80;1.00;;;;;;4978310;28;20030;-80
2022/06/30 08:00:09;;;;;;;9.52;4.10;;;24.00;1.00;;;;;;4978147;28;20324;-80
2022/06/30 08:02:35;;;;;;;6.57;4.13;;;24.20;1.00;;;;;;4978149;28;20085;-80
2022/06/30 08:05:00;;;;;;;5.70;3.70;;;24.20;1.00;;;;;;4978540;28;20447;-80
2022/06/30 08:07:26;;;;;;;5.35;4.13;;;24.20;1.00;;;;;;4978165;28;20538;-80
2022/06/30 08:09:52;;;;;;;4.68;3.75;;;24.20;1.00;;;;;;4976758;28;20031;-80
2022/06/30 08:12:17;;;;;;;5.90;4.20;;;24.30;1.00;;;;;;4975049;28;20058;-80
2022/06/30 08:14:43;;;;;;;6.90;3.90;;;24.40;1.00;;;;;;4975167;28;20412;-80
2022/06/30 08:17:09;;;;;;;8.95;4.28;;;24.60;1.00;;;;;;4975745;28;20023;-80
2022/06/30 08:19:34;;;;;;;7.75;4.60;;;24.70;1.00;;;;;;4975782;28;20038;-80
2022/06/30 08:22:00;;;;;;;5.07;4.25;;;24.90;1.00;;;;;;4974604;28;20073;-81
2022/06/30 08:24:26;;;;;;;5.88;3.90;;;25.20;1.00;;;;;;4974853;28;20563;-80
2022/06/30 08:26:52;;;;;;;8.43;4.55;;;25.60;1.00;;;;;;4974827;28;20384;-80
2022/06/30 08:29:18;;;;;;;7.82;4.20;;;25.60;1.00;;;;;;4974727;28;20122;-80
2022/06/30 08:31:44;;;;;;;8.50;3.85;;;25.70;1.00;;;;;;4974896;28;20166;-81
2022/06/30 08:34:10;;;;;;;8.43;3.80;;;25.90;1.00;;;;;;4975314;28;20027;-80
2022/06/30 08:36:36;;;;;;;5.82;3.83;;;26.00;1.00;;;;;;4974189;28;20038;-81
2022/06/30 08:39:03;;;;;;;6.72;4.13;;;26.10;1.00;;;;;;4974256;28;20042;-80
2022/06/30 08:44:17;;;;;;;7.57;4.07;;;26.50;1.00;;;;;;4960972;28;20561;-81
2022/06/30 08:46:45;;;;;;;6.13;4.05;;;26.60;1.00;;;;;;4974870;28;20035;-80
2022/06/30 08:49:10;;;;;;;4.35;3.47;;;26.70;1.00;;;;;;4974255;28;20022;-80
2022/06/30 08:51:38;;;;;;;5.47;3.53;;;26.90;1.00;;;;;;4974095;28;20046;-80
2022/06/30 08:54:05;;;;;;;5.47;3.60;;;27.10;1.00;;;;;;4974791;28;20026;-80
2022/06/30 08:56:34;;;;;;;5.72;3.90;;;27.10;1.00;;;;;;4974471;28;20047;-80
2022/06/30 08:59:02;;;;;;;5.70;3.65;;;27.00;1.00;;;;;;4974232;28;20387;-80
2022/06/30 09:01:28;;;;;;;7.03;4.00;;;26.90;1.00;;;;;;4975401;28;20027;-80
2022/06/30 09:03:54;;;;;;;5.35;3.50;;;27.40;1.00;;;;;;4956808;28;20081;-80
2022/06/30 09:06:20;;;;;;;5.25;3.40;;;27.60;1.00;;;;;;4973765;28;20027;-81
2022/06/30 09:08:46;;;;;;;6.05;3.70;;;27.70;1.00;;;;;;4974295;28;20041;-80
2022/06/30 09:11:12;;;;;;;6.20;3.67;;;27.60;1.00;;;;;;4973957;28;20043;-80
2022/06/30 09:13:43;;;;;;;6.20;3.90;;;27.20;1.00;;;;;;4974211;28;20483;-80
2022/06/30 09:16:08;;;;;;;6.65;3.20;;;27.10;1.00;;;;;;4974405;28;20491;-80
2022/06/30 09:18:35;;;;;;;5.10;4.10;;;27.30;1.00;;;;;;4973815;28;20090;-80
2022/06/30 09:21:07;;;;;;;6.95;3.70;;;27.50;1.00;;;;;;4973034;28;20041;-81
2022/06/30 09:23:36;;;;;;;8.18;3.60;;;27.70;1.00;;;;;;4973762;28;20037;-80
2022/06/30 09:26:03;;;;;;;5.47;3.90;;;27.50;1.00;;;;;;4973817;28;20054;-80
2022/06/30 09:28:43;;;;;;;6.63;3.95;;;27.30;1.00;;;;;;4974648;28;20031;-81
2022/06/30 09:31:11;;;;;;;5.63;3.28;;;27.40;1.00;;;;;;4973605;28;20049;-80
2022/06/30 09:33:44;;;;;;;6.40;3.72;;;27.70;1.00;;;;;;4973576;28;20034;-80
2022/06/30 09:36:25;;;;;;;5.82;3.58;;;27.90;1.00;;;;;;4973249;28;20506;-80
2022/06/30 09:39:08;;;;;;;6.20;3.35;;;28.40;1.00;;;;;;4973371;28;20533;-80
2022/06/30 09:41:41;;;;;;;7.10;3.45;;;28.50;1.00;;;;;;4973545;28;20042;-80
2022/06/30 09:44:17;;;;;;;6.82;3.95;;;28.60;1.00;;;;;;4958811;28;20026;-80
2022/06/30 09:46:56;;;;;;;8.25;3.35;;;28.40;1.00;;;;;;4970787;28;20030;-81
2022/06/30 09:49:31;;;;;;;6.07;3.53;;;28.80;1.00;;;;;;4973666;28;20113;-80
2022/06/30 09:51:56;;;;;;;6.35;3.35;;;28.50;1.00;;;;;;4972954;28;20047;-79
2022/06/30 09:54:22;;;;;;;5.78;4.00;;;28.00;1.00;;;;;;4973147;28;20026;-81
2022/06/30 09:57:05;;;;;;;4.90;3.30;;;28.30;1.00;;;;;;4973135;28;20070;-80
2022/06/30 09:59:31;;;;;;;5.30;3.55;;;28.10;1.00;;;;;;4973177;28;20488;-80
2022/06/30 10:01:58;;;;;;;6.22;3.42;;;27.80;1.00;;;;;;4973206;28;20022;-80
2022/06/30 10:04:25;;;;;;;8.02;3.50;;;28.30;1.00;;;;;;4973723;28;20058;-80
2022/06/30 10:06:52;;;;;;;5.03;3.65;;;28.10;1.00;;;;;;4972839;28;20046;-81
2022/06/30 10:09:19;;;;;;;7.65;3.70;;;28.00;1.00;;;;;;4972815;28;20033;-80
2022/06/30 10:11:46;;;;;;;4.82;3.40;;;28.60;1.00;;;;;;4973011;28;20034;-81
2022/06/30 10:14:14;;;;;;;4.88;3.75;;;29.10;1.00;;;;;;4973398;28;20036;-80
2022/06/30 10:16:41;;;;;;;4.93;3.63;;;28.80;1.00;;;;;;4973135;28;20042;-81
2022/06/30 10:19:10;;;;;;;5.10;3.40;;;29.00;1.00;;;;;;4972789;28;20026;-80
2022/06/30 10:21:38;;;;;;;4.65;3.05;;;29.20;1.00;;;;;;4972759;28;20054;-80
2022/06/30 10:24:08;;;;;;;3.88;3.40;;;29.30;1.00;;;;;;4972605;28;20408;-80
2022/06/30 10:29:19;;;;;;;5.75;3.47;;;29.50;1.00;;;;;;4959671;28;20038;-80
2022/06/30 10:31:59;;;;;;;6.25;3.50;;;29.40;1.00;;;;;;4972861;28;20062;-80
2022/06/30 10:34:34;;;;;;;7.57;3.45;;;29.10;1.00;;;;;;4971685;28;20050;-80
2022/06/30 10:37:23;;;;;;;4.13;3.30;;;29.20;1.00;;;;;;4972503;28;20077;-80
2022/06/30 10:40:09;;;;;;;3.88;3.45;;;29.30;1.00;;;;;;4959442;28;20287;-80
2022/06/30 10:42:41;;;;;;;3.25;2.95;;;29.50;1.00;;;;;;4972753;28;20035;-81
2022/06/30 10:45:26;;;;;;;5.47;3.47;;;29.60;1.00;;;;;;4972525;28;20027;-80
2022/06/30 10:47:56;;;;;;;6.13;3.10;;;29.80;1.00;;;;;;4972050;28;20058;-81
2022/06/30 10:50:35;;;;;;;4.55;2.92;;;30.00;1.00;;;;;;4972871;28;20495;-81
2022/06/30 10:53:02;;;;;;;5.20;3.13;;;30.30;1.00;;;;;;4972397;28;20054;-81
2022/06/30 10:55:28;;;;;;;4.55;3.08;;;30.20;1.00;;;;;;4973349;28;20147;-80
2022/06/30 10:58:06;;;;;;;2.90;2.70;;;30.50;1.00;;;;;;4972358;28;20066;-80
2022/06/30 11:01:04;;;;;;;4.40;3.00;;;30.70;1.00;;;;;;4972246;28;20085;-81
2022/06/30 11:03:34;;;;;;;3.85;2.85;;;30.60;1.00;;;;;;4870840;29;20037;-81
2022/06/30 11:06:07;;;;;;;5.63;2.97;;;30.10;1.00;;;;;;4872718;29;20049;-81
2022/06/30 11:08:36;;;;;;;2.83;2.60;;;30.30;1.00;;;;;;4863961;29;20045;-81
2022/06/30 11:11:19;;;;;;;6.50;2.65;;;30.50;1.00;;;;;;4860452;29;20045;-81
2022/06/30 11:13:46;;;;;;;3.42;2.65;;;30.30;1.00;;;;;;4873117;29;20041;-81
2022/06/30 11:16:16;;;;;;;3.38;2.80;;;30.70;1.00;;;;;;4848316;29;20377;-81
2022/06/30 11:18:41;;;;;;;4.00;2.60;;;30.90;1.00;;;;;;4864511;29;20045;-80
2022/06/30 11:21:07;;;;;;;5.05;2.72;;;30.80;1.00;;;;;;4845383;29;20037;-81
2022/06/30 11:23:41;;;;;;;4.00;2.70;;;31.10;1.00;;;;;;4860686;29;20038;-81
2022/06/30 11:28:54;;;;;;;4.30;2.70;;;31.30;1.00;;;;;;4873924;29;20614;-81
2022/06/30 11:31:35;;;;;;;4.97;2.63;;;31.50;1.00;;;;;;4862738;29;20124;-81
2022/06/30 11:34:06;;;;;;;2.90;2.60;;;31.50;1.00;;;;;;4864410;29;20041;-81
2022/06/30 11:36:34;;;;;;;3.13;2.67;;;31.90;1.00;;;;;;4864555;29;20124;-81
2022/06/30 11:39:06;;;;;;;7.35;2.80;;;32.20;1.00;;;;;;4912417;28;20031;-80
2022/06/30 11:44:17;;;;;;;4.53;2.85;;;32.00;1.00;;;;;;4959089;28;20041;-81
2022/06/30 11:47:04;;;;;;;3.42;2.60;;;32.10;1.00;;;;;;4975525;28;20030;-81
2022/06/30 11:49:47;;;;;;;4.13;2.50;;;32.60;1.00;;;;;;4975531;28;20788;-81
2022/06/30 11:52:16;;;;;;;2.80;2.30;;;32.70;1.00;;;;;;4975797;28;20043;-81
2022/06/30 11:55:09;;;;;;;3.63;2.33;;;32.30;1.00;;;;;;4975000;28;20114;-82
2022/06/30 11:57:40;;;;;;;2.42;2.22;;;32.40;1.00;;;;;;4975669;28;20058;-81
2022/06/30 12:00:11;;;;;;;6.30;2.92;;;32.10;1.00;;;;;;4974725;28;20062;-81
2022/06/30 12:02:38;;;;;;;3.72;2.47;;;32.70;1.00;;;;;;4975353;28;20125;-81
2022/06/30 12:05:10;;;;;;;3.65;2.20;;;32.80;1.00;;;;;;4975348;28;20054;-81
2022/06/30 12:07:36;;;;;;;3.95;2.55;;;32.30;1.00;;;;;;4972070;28;20027;-81
2022/06/30 12:10:04;;;;;;;4.15;2.70;;;32.10;1.00;;;;;;4975001;28;20145;-81
2022/06/30 12:12:31;;;;;;;5.45;2.63;;;33.00;1.00;;;;;;4975431;28;20126;-81
2022/06/30 12:15:09;;;;;;;5.10;2.85;;;33.00;1.00;;;;;;4974619;28;20380;-81
2022/06/30 12:17:38;;;;;;;4.18;2.70;;;32.40;1.00;;;;;;4974976;28;20039;-81
2022/06/30 12:20:06;;;;;;;3.65;2.78;;;32.10;1.00;;;;;;4975053;28;20081;-81
2022/06/30 12:22:33;;;;;;;3.15;2.85;;;34.00;1.00;;;;;;4976158;28;20049;-81
2022/06/30 12:25:00;;;;;;;5.82;2.90;;;35.30;1.00;;;;;;4975104;28;20038;-81
2022/06/30 12:27:31;;;;;;;5.07;2.90;;;35.40;1.00;;;;;;4974736;28;20041;-80
2022/06/30 12:30:04;;;;;;;5.85;2.88;;;35.00;1.00;;;;;;4974769;28;20033;-80
2022/06/30 12:32:30;;;;;;;4.25;3.05;;;35.90;1.00;;;;;;4974815;28;20037;-81
2022/06/30 12:35:10;;;;;;;4.40;2.80;;;35.60;1.00;;;;;;4974778;28;20395;-81
2022/06/30 12:37:43;;;;;;;4.65;2.80;;;36.90;1.00;;;;;;4971369;28;20023;-81
2022/06/30 12:40:12;;;;;;;7.18;2.90;;;36.30;1.00;;;;;;4974996;28;20050;-82
2022/06/30 12:43:04;;;;;;;5.55;2.75;;;35.40;1.00;;;;;;4974533;28;20535;-82
2022/06/30 12:45:45;;;;;;;2.92;2.20;;;36.40;1.00;;;;;;4970137;28;20424;-82
2022/06/30 12:48:14;;;;;;;4.15;2.50;;;35.40;1.00;;;;;;4974510;28;20038;-81
2022/06/30 12:50:42;;;;;;;5.72;2.50;;;34.00;1.00;;;;;;4974508;28;20026;-82
2022/06/30 12:53:23;;;;;;;3.47;2.40;;;34.30;1.00;;;;;;4959388;28;20038;-81
2022/06/30 12:56:05;;;;;;;4.80;2.60;;;34.10;1.00;;;;;;4971649;28;20411;-81
2022/06/30 12:59:05;;;;;;;4.43;2.60;;;35.10;1.00;;;;;;4974303;28;20035;-82
2022/06/30 13:01:34;;;;;;;3.28;2.60;;;35.10;1.00;;;;;;4974413;28;20114;-82
2022/06/30 13:04:02;;;;;;;3.05;2.75;;;34.90;1.00;;;;;;4974044;28;20031;-82
2022/06/30 13:06:39;;;;;;;3.38;2.78;;;34.80;1.00;;;;;;4974261;28;20059;-82
2022/06/30 13:09:07;;;;;;;3.55;3.15;;;34.70;1.00;;;;;;4974412;28;20133;-82
2022/06/30 13:11:36;;;;;;;5.55;3.10;;;35.20;1.00;;;;;;4973851;28;20034;-82
2022/06/30 13:14:03;;;;;;;5.07;3.58;;;35.00;1.00;;;;;;4974102;28;20033;-82
2022/06/30 13:16:31;;;;;;;6.65;3.35;;;35.00;1.00;;;;;;4974771;28;20483;-82
2022/06/30 13:18:59;;;;;;;6.88;3.65;;;34.40;1.00;;;;;;4974004;28;20089;-82
2022/06/30 13:21:25;;;;;;;6.93;4.20;;;35.20;1.00;;;;;;4973809;28;20027;-81